Time;durP1;ratioP1;P1;durP2;ratioP2;P2;SDS_P1;SDS_P2;PMS_P1;PMS_P2;Temp;Humidity;BMP_temperature;BMP_pressure;BME280_temperature;BME280_humidity;BME280_pressure;Samples;Min_cycle;Max_cycle;Signal;HPM_P1;HPM_P2
2022/07/25 00:00:26;;;;;;;9.37;8.57;;;21.50;99.90;;;;;;5079686;28;20435;-57
2022/07/25 00:02:57;;;;;;;10.57;9.50;;;21.50;99.90;;;;;;5080589;28;20440;-59
2022/07/25 00:05:25;;;;;;;9.53;8.77;;;21.50;99.90;;;;;;5079976;28;20732;-57
2022/07/25 00:07:55;;;;;;;10.00;9.30;;;21.60;99.90;;;;;;5080055;28;20894;-57
2022/07/25 00:10:22;;;;;;;10.53;9.53;;;21.60;99.90;;;;;;5080414;28;20870;-59
2022/07/25 00:12:52;;;;;;;9.93;9.03;;;21.60;99.90;;;;;;5080398;28;20468;-59
2022/07/25 00:15:31;;;;;;;9.30;8.50;;;21.60;99.90;;;;;;5080161;28;20850;-59
2022/07/25 00:18:06;;;;;;;9.40;8.60;;;21.60;99.90;;;;;;5078524;28;20460;-59
2022/07/25 00:20:33;;;;;;;10.50;9.60;;;21.50;99.90;;;;;;5079876;28;20931;-59
2022/07/25 00:23:01;;;;;;;10.10;9.20;;;21.40;99.90;;;;;;5080012;28;20535;-59
2022/07/25 00:25:34;;;;;;;9.80;8.90;;;21.30;99.90;;;;;;5080359;28;20465;-59
2022/07/25 00:28:04;;;;;;;10.33;9.43;;;21.20;99.90;;;;;;5079960;28;20511;-59
2022/07/25 00:30:33;;;;;;;9.30;8.50;;;21.10;99.90;;;;;;5079960;28;20555;-59
2022/07/25 00:33:02;;;;;;;10.57;9.77;;;21.00;99.90;;;;;;5080382;28;20871;-58
2022/07/25 00:35:31;;;;;;;10.07;9.27;;;20.80;99.90;;;;;;5079791;28;20530;-59
2022/07/25 00:37:58;;;;;;;11.03;8.83;;;20.70;99.90;;;;;;5079502;28;20911;-58
2022/07/25 00:40:26;;;;;;;10.50;9.70;;;20.80;99.90;;;;;;5079838;28;20475;-59
2022/07/25 00:42:53;;;;;;;11.03;10.03;;;20.80;99.90;;;;;;5079477;28;20457;-59
2022/07/25 00:45:20;;;;;;;11.00;10.07;;;20.80;99.90;;;;;;5079648;28;20497;-59
2022/07/25 00:47:49;;;;;;;9.27;8.40;;;20.80;99.90;;;;;;5079361;28;20495;-58
2022/07/25 00:50:16;;;;;;;10.03;9.17;;;20.80;99.90;;;;;;5078978;28;20465;-59
2022/07/25 00:52:47;;;;;;;11.27;10.27;;;20.90;99.90;;;;;;5079314;28;20587;-59
2022/07/25 00:55:14;;;;;;;12.13;9.00;;;20.80;99.90;;;;;;5079790;28;20559;-55
2022/07/25 00:57:42;;;;;;;10.47;9.47;;;20.80;99.90;;;;;;5079002;28;20921;-59
2022/07/25 01:00:16;;;;;;;10.10;9.30;;;20.70;99.90;;;;;;5078437;28;20511;-59
2022/07/25 01:02:48;;;;;;;9.83;8.87;;;20.80;99.90;;;;;;5078512;28;20461;-59
2022/07/25 01:05:15;;;;;;;9.70;8.73;;;20.70;99.90;;;;;;5079518;28;20465;-54
2022/07/25 01:07:45;;;;;;;10.03;9.23;;;20.70;99.90;;;;;;5078804;28;20467;-59
2022/07/25 01:10:12;;;;;;;10.00;9.00;;;20.70;99.90;;;;;;5079047;28;20511;-59
2022/07/25 01:12:49;;;;;;;11.07;10.07;;;20.70;99.90;;;;;;5079121;28;20489;-59
2022/07/25 01:15:17;;;;;;;8.73;8.03;;;20.60;99.90;;;;;;5079481;28;20544;-59
2022/07/25 01:17:49;;;;;;;9.73;8.83;;;20.50;99.90;;;;;;5078820;28;20431;-59
2022/07/25 01:20:18;;;;;;;10.40;9.40;;;20.50;99.90;;;;;;5078863;28;20479;-59
2022/07/25 01:22:46;;;;;;;9.83;8.93;;;20.50;99.90;;;;;;5079230;28;20486;-59
2022/07/25 01:25:15;;;;;;;10.20;9.40;;;20.70;99.90;;;;;;5078915;28;20544;-58
2022/07/25 01:27:46;;;;;;;9.00;8.20;;;20.90;99.90;;;;;;5078235;28;20872;-58
2022/07/25 01:30:15;;;;;;;9.83;8.97;;;21.00;99.90;;;;;;5078650;28;20432;-59
2022/07/25 01:32:46;;;;;;;9.80;9.00;;;21.10;99.90;;;;;;5078940;28;20599;-59
2022/07/25 01:35:15;;;;;;;9.50;8.80;;;21.20;99.90;;;;;;5079166;28;20432;-57
2022/07/25 01:37:46;;;;;;;10.87;9.70;;;21.20;99.90;;;;;;5078051;28;20428;-57
2022/07/25 01:40:15;;;;;;;9.63;8.83;;;21.20;99.90;;;;;;5078658;28;20551;-58
2022/07/25 01:42:42;;;;;;;10.80;8.43;;;21.20;99.90;;;;;;5078450;28;20943;-58
2022/07/25 01:45:14;;;;;;;9.90;8.17;;;21.10;99.90;;;;;;5078889;28;20896;-59
2022/07/25 01:47:44;;;;;;;9.57;8.67;;;21.10;99.90;;;;;;5078018;28;20591;-59
2022/07/25 01:50:12;;;;;;;10.80;9.67;;;21.10;99.90;;;;;;5077905;28;20461;-59
2022/07/25 01:52:39;;;;;;;9.50;8.60;;;21.00;99.90;;;;;;5078182;28;20490;-58
2022/07/25 01:55:09;;;;;;;11.13;10.23;;;20.90;99.90;;;;;;5078260;28;20465;-59
2022/07/25 01:57:36;;;;;;;9.50;8.70;;;20.70;99.90;;;;;;5078062;28;20457;-59
2022/07/25 02:00:06;;;;;;;9.77;9.00;;;20.70;99.90;;;;;;5077469;28;20469;-58
2022/07/25 02:02:33;;;;;;;10.03;9.10;;;20.60;99.90;;;;;;5078033;28;20471;-58
2022/07/25 02:05:07;;;;;;;10.07;9.27;;;20.60;99.90;;;;;;5078306;28;20552;-59
2022/07/25 02:07:36;;;;;;;9.43;8.73;;;20.50;99.90;;;;;;5077867;28;20844;-57
2022/07/25 02:10:07;;;;;;;10.53;9.63;;;20.50;99.90;;;;;;5077670;28;20461;-58
2022/07/25 02:12:36;;;;;;;9.37;8.57;;;20.40;99.90;;;;;;5077817;28;20439;-56
2022/07/25 02:15:04;;;;;;;9.80;8.50;;;20.30;99.90;;;;;;5078029;28;20461;-59
2022/07/25 02:17:31;;;;;;;9.50;8.67;;;20.30;99.90;;;;;;5077502;28;20541;-59
2022/07/25 02:19:58;;;;;;;11.63;9.00;;;20.20;99.90;;;;;;5077614;28;20522;-59
2022/07/25 02:22:25;;;;;;;10.37;9.37;;;20.10;99.90;;;;;;5077396;28;20951;-58
2022/07/25 02:24:53;;;;;;;10.27;9.30;;;20.10;99.90;;;;;;5077590;28;20758;-59
2022/07/25 02:27:23;;;;;;;10.13;9.23;;;20.00;99.90;;;;;;5077967;28;20532;-59
2022/07/25 02:29:52;;;;;;;9.73;8.83;;;20.10;99.90;;;;;;5077235;28;20744;-58
2022/07/25 02:32:19;;;;;;;9.53;8.73;;;20.10;99.90;;;;;;5077521;28;20434;-59
2022/07/25 02:34:46;;;;;;;10.47;9.57;;;20.10;99.90;;;;;;5077568;28;20461;-57
2022/07/25 02:37:14;;;;;;;9.23;8.33;;;20.00;99.90;;;;;;5077937;28;20559;-59
2022/07/25 02:39:41;;;;;;;10.40;9.43;;;20.00;99.90;;;;;;5077151;28;20882;-59
2022/07/25 02:42:08;;;;;;;9.90;9.00;;;19.90;99.90;;;;;;5077730;28;20575;-59
2022/07/25 02:44:36;;;;;;;10.10;9.20;;;19.90;99.90;;;;;;5077517;28;20528;-53
2022/07/25 02:47:07;;;;;;;9.57;8.67;;;19.90;99.90;;;;;;5077848;28;20579;-59
2022/07/25 02:49:34;;;;;;;10.37;9.47;;;19.90;99.90;;;;;;5076715;28;20468;-59
2022/07/25 02:52:04;;;;;;;10.40;9.40;;;19.80;99.90;;;;;;5077184;28;20574;-58
2022/07/25 02:54:31;;;;;;;9.33;8.50;;;19.80;99.90;;;;;;5077099;28;20462;-58
2022/07/25 02:56:58;;;;;;;10.00;9.00;;;19.70;99.90;;;;;;5076975;28;20522;-59
2022/07/25 02:59:26;;;;;;;11.30;10.30;;;19.70;99.90;;;;;;5077355;28;20472;-59
2022/07/25 03:01:53;;;;;;;10.73;9.83;;;19.70;99.90;;;;;;5076345;28;20557;-59
2022/07/25 03:04:22;;;;;;;10.30;9.40;;;19.70;99.90;;;;;;5076737;28;20530;-59
2022/07/25 03:06:49;;;;;;;10.70;9.73;;;19.60;99.90;;;;;;5077155;28;20504;-59
2022/07/25 03:09:20;;;;;;;10.70;9.60;;;19.60;99.90;;;;;;5076244;28;20460;-58
2022/07/25 03:11:49;;;;;;;11.53;9.27;;;19.60;99.90;;;;;;5077211;28;20779;-58
2022/07/25 03:14:16;;;;;;;10.40;9.40;;;19.70;99.90;;;;;;5076542;28;20436;-56
2022/07/25 03:16:43;;;;;;;10.07;9.13;;;19.70;99.90;;;;;;5076271;28;20744;-58
2022/07/25 03:19:12;;;;;;;10.27;9.37;;;19.70;99.90;;;;;;5058297;28;20545;-58
2022/07/25 03:21:40;;;;;;;11.67;10.67;;;19.70;99.90;;;;;;5059981;28;20464;-58
2022/07/25 03:24:11;;;;;;;9.93;9.13;;;19.70;99.90;;;;;;5072085;28;20560;-58
2022/07/25 03:26:38;;;;;;;15.80;10.30;;;19.60;99.90;;;;;;5071859;28;20480;-57
2022/07/25 03:29:06;;;;;;;12.43;9.00;;;19.60;99.90;;;;;;5078019;28;20440;-57
2022/07/25 03:31:36;;;;;;;9.77;8.87;;;19.60;99.90;;;;;;5078319;28;20481;-59
2022/07/25 03:34:03;;;;;;;9.60;8.70;;;19.60;99.90;;;;;;5080766;28;20432;-59
2022/07/25 03:36:31;;;;;;;9.57;8.23;;;19.50;99.90;;;;;;5081087;28;20508;-58
2022/07/25 03:39:00;;;;;;;10.17;9.17;;;19.60;99.90;;;;;;5080832;28;20461;-55
2022/07/25 03:41:28;;;;;;;11.10;9.30;;;19.60;99.90;;;;;;5080345;28;20834;-59
2022/07/25 03:43:55;;;;;;;10.23;9.30;;;19.60;99.90;;;;;;5079778;28;20441;-59
2022/07/25 03:46:22;;;;;;;9.37;8.43;;;19.60;99.90;;;;;;5080711;28;20842;-59
2022/07/25 03:48:50;;;;;;;9.57;8.67;;;19.60;99.90;;;;;;5080626;28;20924;-59
2022/07/25 03:51:17;;;;;;;9.93;8.93;;;19.60;99.90;;;;;;5080231;28;20909;-59
2022/07/25 03:54:02;;;;;;;10.57;9.50;;;19.70;99.90;;;;;;5079892;28;20496;-58
2022/07/25 03:56:39;;;;;;;8.80;8.10;;;19.80;99.90;;;;;;5080565;28;20489;-58
2022/07/25 03:59:07;;;;;;;10.20;9.30;;;20.00;99.90;;;;;;5080789;28;20829;-60
2022/07/25 04:01:38;;;;;;;9.70;8.90;;;20.00;99.90;;;;;;5080231;28;20957;-59
2022/07/25 04:04:08;;;;;;;8.63;7.93;;;20.10;99.90;;;;;;5080184;28;20457;-57
2022/07/25 04:06:36;;;;;;;10.83;9.37;;;20.10;99.90;;;;;;5080390;28;20465;-58
2022/07/25 04:09:04;;;;;;;9.93;8.93;;;20.10;99.90;;;;;;5080514;28;20813;-59
2022/07/25 04:11:34;;;;;;;9.97;8.97;;;20.20;99.90;;;;;;5079869;28;20808;-59
2022/07/25 04:14:02;;;;;;;10.33;9.10;;;20.30;99.90;;;;;;5079960;28;20439;-58
2022/07/25 04:16:30;;;;;;;9.00;8.20;;;20.30;99.90;;;;;;5080084;28;20439;-59
2022/07/25 04:19:00;;;;;;;10.50;9.60;;;20.20;99.90;;;;;;5080221;28;20431;-59
2022/07/25 04:21:30;;;;;;;9.63;8.90;;;20.10;99.90;;;;;;5080333;28;20559;-56
2022/07/25 04:23:57;;;;;;;8.67;7.97;;;20.10;99.90;;;;;;5079959;28;20436;-59
2022/07/25 04:26:24;;;;;;;7.60;6.93;;;20.20;99.90;;;;;;5080835;28;20495;-57
2022/07/25 04:28:53;;;;;;;9.37;8.57;;;20.20;99.90;;;;;;5080417;28;20474;-59
2022/07/25 04:31:20;;;;;;;10.93;9.60;;;20.20;99.90;;;;;;5079764;28;20435;-57
2022/07/25 04:33:48;;;;;;;9.93;9.03;;;20.30;99.90;;;;;;5079395;28;20468;-58
2022/07/25 04:36:15;;;;;;;10.20;8.70;;;20.20;99.90;;;;;;5079805;28;20435;-59
2022/07/25 04:38:43;;;;;;;8.30;7.50;;;20.20;99.90;;;;;;5079982;28;20499;-59
2022/07/25 04:41:10;;;;;;;9.43;8.63;;;20.30;99.90;;;;;;5079024;28;20544;-59
2022/07/25 04:43:42;;;;;;;8.70;8.00;;;20.40;99.90;;;;;;5079365;28;20439;-57
2022/07/25 04:46:10;;;;;;;10.50;9.00;;;20.50;99.90;;;;;;5080020;28;20875;-59
2022/07/25 04:48:38;;;;;;;8.67;7.93;;;20.50;99.90;;;;;;5079589;28;20499;-56
2022/07/25 04:51:06;;;;;;;9.10;8.40;;;20.60;99.90;;;;;;5079219;28;20567;-59
2022/07/25 04:53:42;;;;;;;11.33;9.70;;;20.70;99.90;;;;;;5079852;28;20460;-59
2022/07/25 04:56:12;;;;;;;10.27;9.27;;;20.90;99.90;;;;;;5079295;28;20552;-55
2022/07/25 04:58:39;;;;;;;11.07;9.20;;;21.00;99.90;;;;;;5078529;28;20428;-57
2022/07/25 05:01:07;;;;;;;9.60;8.80;;;21.10;99.90;;;;;;5078651;28;20552;-59
2022/07/25 05:03:35;;;;;;;9.30;8.50;;;21.20;99.90;;;;;;5078970;28;20749;-59
2022/07/25 05:06:04;;;;;;;9.00;8.10;;;21.30;99.90;;;;;;5079362;28;20530;-59
2022/07/25 05:08:32;;;;;;;9.30;8.40;;;21.40;99.90;;;;;;5079192;28;20852;-58
2022/07/25 05:11:03;;;;;;;11.03;8.53;;;21.50;99.90;;;;;;5078667;28;20556;-58
2022/07/25 05:13:30;;;;;;;10.13;9.30;;;21.70;99.90;;;;;;5079221;28;20512;-56
2022/07/25 05:15:58;;;;;;;9.00;8.10;;;21.80;99.90;;;;;;5078037;28;20556;-56
2022/07/25 05:18:25;;;;;;;8.33;7.63;;;22.00;99.90;;;;;;5078954;28;20457;-59
2022/07/25 05:20:58;;;;;;;9.50;8.63;;;22.20;99.90;;;;;;5076067;28;20493;-57
2022/07/25 05:23:25;;;;;;;15.97;14.57;;;22.40;99.90;;;;;;5070855;28;20860;-58
2022/07/25 05:25:54;;;;;;;11.63;10.57;;;22.50;99.90;;;;;;5077715;28;20504;-59
2022/07/25 05:28:22;;;;;;;9.43;8.53;;;22.70;99.90;;;;;;5077995;28;20545;-58
2022/07/25 05:30:49;;;;;;;17.23;8.43;;;22.70;99.90;;;;;;5078560;28;20564;-59
2022/07/25 05:33:19;;;;;;;8.97;8.20;;;22.90;99.90;;;;;;5078419;28;20519;-60
2022/07/25 05:35:50;;;;;;;9.10;8.30;;;23.00;99.90;;;;;;5078534;28;20536;-57
2022/07/25 05:38:20;;;;;;;9.93;9.00;;;23.20;99.90;;;;;;5078340;28;20434;-56
2022/07/25 05:40:47;;;;;;;8.60;7.80;;;23.30;99.90;;;;;;5078303;28;20552;-57
2022/07/25 05:43:15;;;;;;;9.43;8.43;;;23.40;99.90;;;;;;5077910;28;20898;-58
2022/07/25 05:45:46;;;;;;;8.80;8.10;;;23.50;99.90;;;;;;5078167;28;20548;-59
2022/07/25 05:48:13;;;;;;;8.57;7.87;;;23.60;99.90;;;;;;5078448;28;20493;-58
2022/07/25 05:50:41;;;;;;;8.00;7.40;;;23.60;99.90;;;;;;5077973;28;20560;-59
2022/07/25 05:53:08;;;;;;;9.27;8.47;;;23.60;99.90;;;;;;5078336;28;20489;-53
2022/07/25 05:55:37;;;;;;;9.80;8.23;;;23.60;99.90;;;;;;5077874;28;20485;-58
2022/07/25 05:58:10;;;;;;;9.07;8.20;;;23.70;99.90;;;;;;5077658;28;20431;-59
2022/07/25 06:00:40;;;;;;;9.07;8.37;;;23.80;99.90;;;;;;5078145;28;20526;-58
2022/07/25 06:03:09;;;;;;;9.27;8.47;;;23.80;99.90;;;;;;5078742;28;20845;-57
2022/07/25 06:05:36;;;;;;;8.83;8.07;;;24.00;99.90;;;;;;5077233;28;20444;-56
2022/07/25 06:08:04;;;;;;;8.73;8.07;;;24.00;99.90;;;;;;5077492;28;21012;-58
2022/07/25 06:10:31;;;;;;;9.03;8.13;;;24.20;99.90;;;;;;5075964;28;20466;-54
2022/07/25 06:13:01;;;;;;;8.43;7.73;;;24.30;99.90;;;;;;5077804;28;20514;-56
2022/07/25 06:15:28;;;;;;;9.60;8.70;;;24.40;99.90;;;;;;5077995;28;20496;-59
2022/07/25 06:17:56;;;;;;;8.67;7.87;;;24.50;99.90;;;;;;5076679;28;20611;-60
2022/07/25 06:20:23;;;;;;;8.50;7.80;;;24.60;99.90;;;;;;5078145;28;20556;-59
2022/07/25 06:22:50;;;;;;;8.37;7.73;;;24.70;99.90;;;;;;5077719;28;20502;-60
2022/07/25 06:25:18;;;;;;;9.57;8.77;;;24.80;99.90;;;;;;5077635;28;20739;-56
2022/07/25 06:27:46;;;;;;;8.60;7.80;;;24.70;99.90;;;;;;5076683;28;20597;-60
2022/07/25 06:30:17;;;;;;;8.90;8.20;;;24.60;99.90;;;;;;5076945;28;20913;-58
2022/07/25 06:32:44;;;;;;;9.37;8.60;;;24.70;99.90;;;;;;5077111;28;20524;-54
2022/07/25 06:35:11;;;;;;;8.83;8.13;;;24.70;99.90;;;;;;5077274;28;20462;-60
2022/07/25 06:37:39;;;;;;;7.93;7.20;;;24.60;99.90;;;;;;5076809;28;20966;-59
2022/07/25 06:40:09;;;;;;;9.00;8.20;;;24.70;99.90;;;;;;5075785;28;20468;-60
2022/07/25 06:42:39;;;;;;;8.73;7.93;;;24.90;99.90;;;;;;5077170;28;20461;-59
2022/07/25 06:45:10;;;;;;;9.50;8.17;;;25.00;99.90;;;;;;5077171;28;20497;-60
2022/07/25 06:47:40;;;;;;;9.00;8.23;;;25.20;99.90;;;;;;5075281;28;20465;-56
2022/07/25 06:50:10;;;;;;;9.87;9.07;;;25.30;99.90;;;;;;5077318;28;20561;-58
2022/07/25 06:52:41;;;;;;;7.87;7.33;;;25.20;99.90;;;;;;5077231;28;20576;-57
2022/07/25 06:55:13;;;;;;;8.40;7.70;;;25.10;99.90;;;;;;5076575;28;21068;-57
2022/07/25 06:57:43;;;;;;;9.60;8.80;;;25.10;99.90;;;;;;5076414;28;20878;-56
2022/07/25 07:00:13;;;;;;;9.40;8.60;;;25.20;99.90;;;;;;5076529;28;20461;-58
2022/07/25 07:02:56;;;;;;;9.53;8.73;;;25.00;99.90;;;;;;5076768;28;20465;-58
2022/07/25 07:05:23;;;;;;;9.10;8.20;;;25.20;99.90;;;;;;5077131;28;20886;-58
2022/07/25 07:07:51;;;;;;;9.20;8.50;;;25.30;99.90;;;;;;5076970;28;20825;-60
2022/07/25 07:10:22;;;;;;;8.60;8.00;;;25.40;99.90;;;;;;5077089;28;20431;-57
2022/07/25 07:12:50;;;;;;;10.30;9.40;;;25.60;99.90;;;;;;5077195;28;20494;-55
2022/07/25 07:15:17;;;;;;;9.40;8.60;;;25.70;99.90;;;;;;5076509;28;20456;-60
2022/07/25 07:17:47;;;;;;;10.97;8.00;;;25.90;99.90;;;;;;5076592;28;20552;-58
2022/07/25 07:20:19;;;;;;;8.60;7.80;;;26.30;99.90;;;;;;5075897;28;20906;-61
2022/07/25 07:22:49;;;;;;;8.63;7.93;;;26.60;99.90;;;;;;5075552;28;20753;-53
2022/07/25 07:25:18;;;;;;;8.10;7.40;;;26.80;99.90;;;;;;5077075;28;20757;-53
2022/07/25 07:27:47;;;;;;;8.90;8.30;;;27.00;99.90;;;;;;5076767;28;20957;-55
2022/07/25 07:30:15;;;;;;;8.87;8.17;;;27.10;99.90;;;;;;5075654;28;20940;-58
2022/07/25 07:32:42;;;;;;;9.67;8.87;;;27.10;99.90;;;;;;5076893;28;20558;-59
2022/07/25 07:35:15;;;;;;;9.00;8.10;;;27.30;99.90;;;;;;5076336;28;20442;-59
2022/07/25 07:37:46;;;;;;;9.90;9.00;;;27.50;99.90;;;;;;5076642;28;20465;-56
2022/07/25 07:40:15;;;;;;;8.70;8.00;;;27.50;99.90;;;;;;5076396;28;20461;-60
2022/07/25 07:42:45;;;;;;;8.60;7.90;;;27.60;99.90;;;;;;5076024;28;20467;-60
2022/07/25 07:45:19;;;;;;;9.43;8.60;;;27.90;99.90;;;;;;5076900;28;20469;-55
2022/07/25 07:47:47;;;;;;;9.20;8.40;;;28.40;99.90;;;;;;5076444;28;20858;-58
2022/07/25 07:50:22;;;;;;;7.83;7.23;;;28.90;99.90;;;;;;5076988;28;20575;-56
2022/07/25 07:52:51;;;;;;;8.83;8.07;;;29.30;99.90;;;;;;5076646;28;20474;-61
2022/07/25 07:58:07;;;;;;;8.77;8.07;;;29.30;99.90;;;;;;5075826;28;20447;-59
2022/07/25 08:00:38;;;;;;;8.57;7.87;;;29.50;99.90;;;;;;5074590;28;20440;-59
2022/07/25 08:03:10;;;;;;;8.57;7.97;;;29.10;99.90;;;;;;5076614;28;20480;-60
2022/07/25 08:05:54;;;;;;;8.90;8.20;;;29.40;99.90;;;;;;5075676;28;20450;-61
2022/07/25 08:08:23;;;;;;;8.90;8.20;;;29.20;99.90;;;;;;5076832;28;20986;-60
2022/07/25 08:10:57;;;;;;;8.00;7.20;;;29.40;99.90;;;;;;5076860;28;20468;-61
2022/07/25 08:13:26;;;;;;;10.27;7.83;;;29.70;99.90;;;;;;5076484;28;20877;-56
2022/07/25 08:16:01;;;;;;;8.90;8.20;;;30.00;99.90;;;;;;5078736;28;20436;-61
2022/07/25 08:18:35;;;;;;;9.63;8.83;;;29.90;99.90;;;;;;5080435;28;20435;-62
2022/07/25 08:21:07;;;;;;;8.93;8.17;;;29.90;99.90;;;;;;5080098;28;20475;-60
2022/07/25 08:23:40;;;;;;;8.53;7.70;;;30.00;99.90;;;;;;5079747;28;20468;-60
2022/07/25 08:26:13;;;;;;;9.73;9.00;;;30.20;99.90;;;;;;5079824;28;20858;-59
2022/07/25 08:28:45;;;;;;;9.20;8.50;;;30.80;99.90;;;;;;5079774;28;20489;-58
2022/07/25 08:31:13;;;;;;;8.43;7.83;;;31.40;99.90;;;;;;5080070;28;20820;-60
2022/07/25 08:33:40;;;;;;;9.60;8.80;;;31.90;99.90;;;;;;5072247;28;20474;-59
2022/07/25 08:36:11;;;;;;;8.50;7.90;;;32.00;99.90;;;;;;5068098;28;20485;-60
2022/07/25 08:41:25;;;;;;;7.83;7.20;;;32.10;99.90;;;;;;5078562;28;20461;-57
2022/07/25 08:43:54;;;;;;;9.53;8.77;;;31.80;99.90;;;;;;5079593;28;20553;-60
2022/07/25 08:46:22;;;;;;;9.60;8.53;;;31.20;99.90;;;;;;5079263;28;20494;-61
2022/07/25 08:48:53;;;;;;;9.63;8.73;;;31.20;99.90;;;;;;5079596;28;20489;-61
2022/07/25 08:51:21;;;;;;;8.73;7.87;;;31.10;99.90;;;;;;5079577;28;20580;-61
2022/07/25 08:53:51;;;;;;;8.80;8.00;;;30.80;99.90;;;;;;5079254;28;20469;-61
2022/07/25 08:56:19;;;;;;;8.33;7.63;;;30.50;99.90;;;;;;5079358;28;20782;-60
2022/07/25 08:58:48;;;;;;;9.13;8.33;;;30.30;99.90;;;;;;5079247;28;20548;-56
2022/07/25 09:01:15;;;;;;;10.17;8.53;;;30.10;99.90;;;;;;5079029;28;20466;-59
2022/07/25 09:03:45;;;;;;;9.43;8.63;;;29.80;99.90;;;;;;5079187;28;20439;-58
2022/07/25 09:06:21;;;;;;;9.57;8.77;;;29.30;99.90;;;;;;5079515;28;20862;-56
2022/07/25 09:08:57;;;;;;;8.77;7.97;;;29.00;99.90;;;;;;5079116;28;20515;-61
2022/07/25 09:11:31;;;;;;;9.40;8.70;;;28.90;99.90;;;;;;5079171;28;20468;-61
2022/07/25 09:14:03;;;;;;;9.27;8.40;;;29.00;99.90;;;;;;5079159;28;20439;-55
2022/07/25 09:16:34;;;;;;;10.60;9.33;;;29.20;99.90;;;;;;5079051;28;20802;-61
2022/07/25 09:19:12;;;;;;;9.50;8.60;;;29.40;99.90;;;;;;5077548;28;20677;-61
2022/07/25 09:21:48;;;;;;;9.47;8.70;;;29.20;99.90;;;;;;5077680;28;20527;-60
2022/07/25 09:24:19;;;;;;;9.57;8.50;;;28.90;99.90;;;;;;5078233;28;20448;-61
2022/07/25 09:26:52;;;;;;;9.57;8.73;;;29.40;99.90;;;;;;5079165;28;20923;-62
2022/07/25 09:29:22;;;;;;;9.20;8.40;;;29.60;99.90;;;;;;5077977;28;20854;-60
2022/07/25 09:31:54;;;;;;;9.00;8.30;;;29.90;99.90;;;;;;5078369;28;20519;-61
2022/07/25 09:34:33;;;;;;;9.70;8.90;;;30.60;99.90;;;;;;5078252;28;20440;-62
2022/07/25 09:37:08;;;;;;;10.00;9.20;;;31.00;99.90;;;;;;5078061;28;20942;-57
2022/07/25 09:39:42;;;;;;;8.50;7.90;;;31.20;99.90;;;;;;5078460;28;20551;-62
2022/07/25 09:42:30;;;;;;;11.20;8.57;;;31.80;99.90;;;;;;5078771;28;20556;-62
2022/07/25 09:45:01;;;;;;;8.93;8.13;;;32.60;99.90;;;;;;5078426;28;20522;-60
2022/07/25 09:47:29;;;;;;;9.70;8.70;;;32.50;99.90;;;;;;5078638;28;20878;-61
2022/07/25 09:49:56;;;;;;;8.57;7.80;;;31.70;99.90;;;;;;5077442;28;21000;-59
2022/07/25 09:52:25;;;;;;;9.13;8.43;;;31.70;99.90;;;;;;5077729;28;20550;-59
2022/07/25 09:54:54;;;;;;;10.90;10.00;;;32.00;99.90;;;;;;5078251;28;20472;-60
2022/07/25 09:57:25;;;;;;;9.63;8.83;;;32.20;99.90;;;;;;5076266;28;20568;-60
2022/07/25 09:59:54;;;;;;;9.43;8.63;;;31.90;99.90;;;;;;5077081;28;20780;-59
2022/07/25 10:02:37;;;;;;;9.87;9.10;;;31.40;99.90;;;;;;5077275;28;20468;-61
2022/07/25 10:05:14;;;;;;;9.20;8.40;;;31.10;99.90;;;;;;5077850;28;20801;-62
2022/07/25 10:07:48;;;;;;;9.90;9.00;;;30.80;99.90;;;;;;5077605;28;20514;-61
2022/07/25 10:10:29;;;;;;;9.47;8.57;;;31.10;99.90;;;;;;5078318;28;20989;-59
2022/07/25 10:13:09;;;;;;;9.07;8.27;;;30.30;99.90;;;;;;5077867;28;20501;-57
2022/07/25 10:15:48;;;;;;;9.00;8.37;;;29.60;99.90;;;;;;5077791;28;20465;-59
2022/07/25 10:18:17;;;;;;;9.20;8.50;;;29.40;99.90;;;;;;5078027;28;20466;-58
2022/07/25 10:20:45;;;;;;;12.23;9.17;;;29.10;99.90;;;;;;5077860;28;20458;-59
2022/07/25 10:23:26;;;;;;;8.83;8.03;;;29.00;99.90;;;;;;5078309;28;20534;-58
2022/07/25 10:26:16;;;;;;;10.30;9.17;;;28.80;99.90;;;;;;5077475;28;20471;-59
2022/07/25 10:28:48;;;;;;;9.30;8.40;;;28.60;99.90;;;;;;5076981;28;20461;-57
2022/07/25 10:31:36;;;;;;;10.53;9.47;;;28.50;99.90;;;;;;5077501;28;20518;-58
2022/07/25 10:34:05;;;;;;;9.70;8.80;;;28.30;99.90;;;;;;5077276;28;20457;-61
2022/07/25 10:36:43;;;;;;;9.53;8.73;;;28.30;99.90;;;;;;5075899;28;20439;-59
2022/07/25 10:39:21;;;;;;;9.37;8.47;;;28.00;99.90;;;;;;5076755;28;20452;-61
2022/07/25 10:41:54;;;;;;;11.00;9.23;;;27.60;99.90;;;;;;5075960;28;20501;-59
2022/07/25 10:44:22;;;;;;;9.47;8.67;;;27.30;99.90;;;;;;5076904;28;20522;-58
2022/07/25 10:46:49;;;;;;;10.13;9.33;;;27.10;99.90;;;;;;5075853;28;20477;-61
2022/07/25 10:49:19;;;;;;;9.90;9.00;;;27.10;99.90;;;;;;5076330;28;20968;-60
2022/07/25 10:51:57;;;;;;;11.13;9.87;;;26.90;99.90;;;;;;5075665;28;20502;-58
2022/07/25 10:54:26;;;;;;;9.83;8.87;;;26.60;99.90;;;;;;5076919;28;20504;-61
2022/07/25 10:56:57;;;;;;;9.53;8.63;;;26.60;99.90;;;;;;5077386;28;20485;-60
2022/07/25 10:59:30;;;;;;;10.07;9.27;;;26.50;99.90;;;;;;5077435;28;20464;-56
2022/07/25 11:02:00;;;;;;;10.83;9.80;;;26.70;99.90;;;;;;5076946;28;20436;-60
2022/07/25 11:04:29;;;;;;;10.20;9.30;;;26.90;99.90;;;;;;5076318;28;20488;-60
2022/07/25 11:06:56;;;;;;;10.50;9.50;;;27.30;99.90;;;;;;5076983;28;20469;-59
2022/07/25 11:09:25;;;;;;;9.70;8.70;;;28.50;99.90;;;;;;5077334;28;20497;-61
2022/07/25 11:11:59;;;;;;;9.73;8.53;;;29.50;99.90;;;;;;5077092;28;20457;-61
2022/07/25 11:14:31;;;;;;;8.73;8.03;;;30.40;99.90;;;;;;5076274;28;20468;-60
2022/07/25 11:17:11;;;;;;;8.97;8.20;;;30.60;99.90;;;;;;5076655;28;20440;-53
2022/07/25 11:19:39;;;;;;;9.90;9.10;;;31.40;99.90;;;;;;5075515;28;20564;-60
2022/07/25 11:22:08;;;;;;;10.43;9.27;;;31.30;99.90;;;;;;5076857;28;20743;-61
2022/07/25 11:24:40;;;;;;;9.97;8.43;;;31.40;99.90;;;;;;5076388;28;20480;-61
2022/07/25 11:27:22;;;;;;;11.90;9.70;;;31.70;99.90;;;;;;5074480;28;20942;-58
2022/07/25 11:29:50;;;;;;;9.57;8.77;;;31.30;99.90;;;;;;5074741;28;20592;-61
2022/07/25 11:32:20;;;;;;;10.20;9.10;;;30.10;99.90;;;;;;5076546;28;20471;-59
2022/07/25 11:34:53;;;;;;;9.53;8.63;;;29.50;99.90;;;;;;5076995;28;20930;-60
2022/07/25 11:37:24;;;;;;;9.90;9.10;;;28.90;99.90;;;;;;5077058;28;20461;-60
2022/07/25 11:40:00;;;;;;;9.33;8.63;;;28.60;99.90;;;;;;5076496;28;20489;-60
2022/07/25 11:42:41;;;;;;;10.87;9.90;;;28.80;99.90;;;;;;5076748;28;20497;-59
2022/07/25 11:45:20;;;;;;;9.70;8.70;;;29.30;99.90;;;;;;5077137;28;20467;-58
2022/07/25 11:48:01;;;;;;;8.80;8.00;;;29.40;99.90;;;;;;5076690;28;20559;-61
2022/07/25 11:50:32;;;;;;;10.97;8.50;;;30.00;99.90;;;;;;5079135;28;20497;-58
2022/07/25 11:53:00;;;;;;;8.77;7.97;;;30.40;99.90;;;;;;5079761;28;20731;-61
2022/07/25 11:55:32;;;;;;;9.70;8.83;;;30.70;99.90;;;;;;5081042;28;20465;-61
2022/07/25 11:58:02;;;;;;;9.17;8.33;;;31.20;99.90;;;;;;5080356;28;20461;-59
2022/07/25 12:03:17;;;;;;;8.90;8.10;;;31.20;99.90;;;;;;5078435;28;20759;-58
2022/07/25 12:05:45;;;;;;;9.20;8.30;;;31.40;99.90;;;;;;5080060;28;20511;-59
2022/07/25 12:08:17;;;;;;;8.70;7.90;;;31.50;99.90;;;;;;5080171;28;20464;-60
2022/07/25 12:10:49;;;;;;;7.50;6.80;;;31.40;99.90;;;;;;5080602;28;20529;-61
2022/07/25 12:13:29;;;;;;;8.07;7.43;;;31.10;99.90;;;;;;5080711;28;20484;-60
2022/07/25 12:15:58;;;;;;;6.90;6.30;;;31.20;99.90;;;;;;5080237;28;20527;-59
2022/07/25 12:18:28;;;;;;;7.67;7.07;;;30.40;99.90;;;;;;5080854;28;20522;-57
2022/07/25 12:20:57;;;;;;;7.77;7.17;;;30.20;99.90;;;;;;5080656;28;20432;-57
2022/07/25 12:23:27;;;;;;;7.30;6.57;;;30.00;99.90;;;;;;5080500;28;20555;-58
2022/07/25 12:25:57;;;;;;;6.97;6.47;;;30.70;99.90;;;;;;5080307;28;20834;-59
2022/07/25 12:28:26;;;;;;;7.43;6.70;;;31.30;99.90;;;;;;5080343;28;20944;-61
2022/07/25 12:30:54;;;;;;;7.17;6.57;;;31.70;99.90;;;;;;5080365;28;20848;-54
2022/07/25 12:33:24;;;;;;;8.20;7.50;;;31.60;99.90;;;;;;5080417;28;20460;-59
2022/07/25 12:35:53;;;;;;;7.17;6.57;;;31.20;99.90;;;;;;5080226;28;20736;-61
2022/07/25 12:38:23;;;;;;;7.20;6.70;;;31.80;99.90;;;;;;5079721;28;20482;-61
2022/07/25 12:40:53;;;;;;;7.90;7.20;;;32.00;99.90;;;;;;5079896;28;20507;-61
2022/07/25 12:43:21;;;;;;;8.33;7.53;;;32.50;99.90;;;;;;5080038;28;20495;-63
2022/07/25 12:45:52;;;;;;;8.57;7.80;;;32.60;99.90;;;;;;5079427;28;20563;-60
2022/07/25 12:48:19;;;;;;;7.53;6.93;;;32.30;99.90;;;;;;5079798;28;20900;-61
2022/07/25 12:50:46;;;;;;;9.53;7.70;;;31.40;99.90;;;;;;5079310;28;20592;-58
2022/07/25 12:53:15;;;;;;;8.30;7.50;;;31.10;99.90;;;;;;5078716;28;20555;-60
2022/07/25 12:55:43;;;;;;;7.87;7.10;;;31.20;99.90;;;;;;5079373;28;20457;-61
2022/07/25 12:58:11;;;;;;;8.87;7.10;;;30.80;99.90;;;;;;5079651;28;20560;-60
2022/07/25 13:00:43;;;;;;;6.77;6.27;;;30.70;99.90;;;;;;5078111;28;20745;-55
2022/07/25 13:03:16;;;;;;;6.43;5.93;;;31.20;99.90;;;;;;5079603;28;20911;-59
2022/07/25 13:05:44;;;;;;;6.90;6.40;;;31.50;99.90;;;;;;5079297;28;20882;-61